地図

経路データ

SID SEASON NUMBER BASIN SUBBASIN NAME ISO_TIME NATURE LAT LON WMO_WIND WMO_PRES WMO_AGENCY TRACK_TYPE DIST2LAND LANDFALL IFLAG USA_AGENCY USA_ATCF_ID USA_LAT USA_LON USA_RECORD USA_STATUS USA_WIND USA_PRES USA_SSHS USA_R34_NE USA_R34_SE USA_R34_SW USA_R34_NW USA_R50_NE USA_R50_SE USA_R50_SW USA_R50_NW USA_R64_NE USA_R64_SE USA_R64_SW USA_R64_NW USA_POCI USA_ROCI USA_RMW USA_EYE TOKYO_LAT TOKYO_LON TOKYO_GRADE TOKYO_WIND TOKYO_PRES TOKYO_R50_DIR TOKYO_R50_LONG TOKYO_R50_SHORT TOKYO_R30_DIR TOKYO_R30_LONG TOKYO_R30_SHORT TOKYO_LAND CMA_LAT CMA_LON CMA_CAT CMA_WIND CMA_PRES HKO_LAT HKO_LON HKO_CAT HKO_WIND HKO_PRES NEWDELHI_LAT NEWDELHI_LON NEWDELHI_GRADE NEWDELHI_WIND NEWDELHI_PRES NEWDELHI_CI NEWDELHI_DP NEWDELHI_POCI REUNION_LAT REUNION_LON REUNION_TYPE REUNION_WIND REUNION_PRES REUNION_TNUM REUNION_CI REUNION_RMW REUNION_R34_NE REUNION_R34_SE REUNION_R34_SW REUNION_R34_NW REUNION_R50_NE REUNION_R50_SE REUNION_R50_SW REUNION_R50_NW REUNION_R64_NE REUNION_R64_SE REUNION_R64_SW REUNION_R64_NW BOM_LAT BOM_LON BOM_TYPE BOM_WIND BOM_PRES BOM_TNUM BOM_CI BOM_RMW BOM_R34_NE BOM_R34_SE BOM_R34_SW BOM_R34_NW BOM_R50_NE BOM_R50_SE BOM_R50_SW BOM_R50_NW BOM_R64_NE BOM_R64_SE BOM_R64_SW BOM_R64_NW BOM_ROCI BOM_POCI BOM_EYE BOM_POS_METHOD BOM_PRES_METHOD NADI_LAT NADI_LON NADI_CAT NADI_WIND NADI_PRES WELLINGTON_LAT WELLINGTON_LON WELLINGTON_WIND WELLINGTON_PRES DS824_LAT DS824_LON DS824_STAGE DS824_WIND DS824_PRES TD9636_LAT TD9636_LON TD9636_STAGE TD9636_WIND TD9636_PRES TD9635_LAT TD9635_LON TD9635_WIND TD9635_PRES TD9635_ROCI NEUMANN_LAT NEUMANN_LON NEUMANN_CLASS NEUMANN_WIND NEUMANN_PRES MLC_LAT MLC_LON MLC_CLASS MLC_WIND MLC_PRES USA_GUST BOM_GUST BOM_GUST_PER REUNION_GUST REUNION_GUST_PER USA_SEAHGT USA_SEARAD_NE USA_SEARAD_SE USA_SEARAD_SW USA_SEARAD_NW STORM_SPEED STORM_DIR
1932282N24303 1932 61 NA NA NOT_NAMED 1932-10-08 00:00:00 TS 23.6000 -57.0000 30 hurdat_atl main 1064 1044 O_____________ hurdat_atl AL121932 23.6000 -57.0000 TD 30 -1 7 288
1932282N24303 1932 61 NA NA NOT_NAMED 1932-10-08 03:00:00 TS 23.7001 -57.3399 main 1044 1017 P_____________ AL121932 23.7001 -57.3399 TD 32 -1 7 287
1932282N24303 1932 61 NA NA NOT_NAMED 1932-10-08 06:00:00 TS 23.8000 -57.7000 35 hurdat_atl main 1017 991 O_____________ hurdat_atl AL121932 23.8000 -57.7000 TS 35 0 7 286
1932282N24303 1932 61 NA NA NOT_NAMED 1932-10-08 09:00:00 TS 23.9000 -58.0925 main 991 965 P_____________ AL121932 23.9000 -58.0925 TS 35 0 8 285
1932282N24303 1932 61 NA NA NOT_NAMED 1932-10-08 12:00:00 TS 24.0000 -58.5000 35 hurdat_atl main 965 942 O_____________ hurdat_atl AL121932 24.0000 -58.5000 TS 35 0 8 285
1932282N24303 1932 61 NA NA NOT_NAMED 1932-10-08 15:00:00 TS 24.0924 -58.9001 main 942 919 P_____________ AL121932 24.0924 -58.9001 TS 35 0 8 285
1932282N24303 1932 61 NA NA NOT_NAMED 1932-10-08 18:00:00 TS 24.2000 -59.3000 35 hurdat_atl main 919 898 O_____________ hurdat_atl AL121932 24.2000 -59.3000 TS 35 0 8 288
1932282N24303 1932 61 NA NA NOT_NAMED 1932-10-08 21:00:00 TS 24.3350 -59.7076 main 898 886 P_____________ AL121932 24.3350 -59.7076 TS 35 0 8 292
1932282N24303 1932 61 NA NA NOT_NAMED 1932-10-09 00:00:00 TS 24.5000 -60.1000 35 hurdat_atl main 888 877 O_____________ hurdat_atl AL121932 24.5000 -60.1000 TS 35 0 8 297
1932282N24303 1932 61 NA NA NOT_NAMED 1932-10-09 03:00:00 TS 24.6774 -60.4577 main 879 873 P_____________ AL121932 24.6774 -60.4577 TS 35 0 8 302
1932282N24303 1932 61 NA NA NOT_NAMED 1932-10-09 06:00:00 TS 24.9000 -60.8000 35 hurdat_atl main 879 873 O_____________ hurdat_atl AL121932 24.9000 -60.8000 TS 35 0 8 307
1932282N24303 1932 61 NA NA NOT_NAMED 1932-10-09 09:00:00 TS 25.1550 -61.1651 main 885 880 P_____________ AL121932 25.1550 -61.1651 TS 37 0 9 313
1932282N24303 1932 61 NA NA NOT_NAMED 1932-10-09 12:00:00 TS 25.5000 -61.5000 40 hurdat_atl main 899 899 O_____________ hurdat_atl AL121932 25.5000 -61.5000 TS 40 0 10 324
1932282N24303 1932 61 NA NA NOT_NAMED 1932-10-09 15:00:00 TS 25.9325 -61.7801 main 925 925 P_____________ AL121932 25.9325 -61.7801 TS 40 0 11 336
1932282N24303 1932 61 NA NA NOT_NAMED 1932-10-09 18:00:00 TS 26.5000 -62.0000 40 hurdat_atl main 977 977 O_____________ hurdat_atl AL121932 26.5000 -62.0000 TS 40 0 13 345
1932282N24303 1932 61 NA NA NOT_NAMED 1932-10-09 21:00:00 TS 27.1900 -62.1654 main 1043 1043 P_____________ AL121932 27.1900 -62.1654 TS 40 0 15 350
1932282N24303 1932 61 NA NA NOT_NAMED 1932-10-10 00:00:00 TS 28.0000 -62.3000 40 hurdat_atl main 1124 1124 O_____________ hurdat_atl AL121932 28.0000 -62.3000 TS 40 0 17 352
1932282N24303 1932 61 NA NA NOT_NAMED 1932-10-10 03:00:00 TS 28.8925 -62.4501 main 1215 1215 P_____________ AL121932 28.8925 -62.4501 TS 42 0 18 352
1932282N24303 1932 61 NA NA NOT_NAMED 1932-10-10 06:00:00 TS 29.8000 -62.6000 45 hurdat_atl main 1309 1309 O_____________ hurdat_atl AL121932 29.8000 -62.6000 TS 45 0 18 352
1932282N24303 1932 61 NA NA NOT_NAMED 1932-10-10 09:00:00 TS 30.6599 -62.7501 main 1307 1262 P_____________ AL121932 30.6599 -62.7501 TS 45 0 16 351
1932282N24303 1932 61 NA NA NOT_NAMED 1932-10-10 12:00:00 TS 31.4000 -62.9000 45 hurdat_atl main 1262 1230 O_____________ hurdat_atl AL121932 31.4000 -62.9000 TS 45 0 13 349
1932282N24303 1932 61 NA NA NOT_NAMED 1932-10-10 15:00:00 TS 31.9599 -63.0503 main 1217 1191 P_____________ AL121932 31.9599 -63.0503 TS 47 0 10 346
1932282N24303 1932 61 NA NA NOT_NAMED 1932-10-10 18:00:00 TS 32.4000 -63.2000 50 hurdat_atl main 1191 1153 O_____________ hurdat_atl AL121932 32.4000 -63.2000 TS 50 0 9 343
1932282N24303 1932 61 NA NA NOT_NAMED 1932-10-10 21:00:00 TS 32.8225 -63.3576 main 1148 1105 P_____________ AL121932 32.8225 -63.3576 TS 50 0 8 342
1932282N24303 1932 61 NA NA NOT_NAMED 1932-10-11 00:00:00 TS 33.2000 -63.5000 50 hurdat_atl main 1105 1071 O_____________ hurdat_atl AL121932 33.2000 -63.5000 TS 50 0 8 342
1932282N24303 1932 61 NA NA NOT_NAMED 1932-10-11 03:00:00 TS 33.5425 -63.6373 main 1071 1028 P_____________ AL121932 33.5425 -63.6373 TS 50 0 7 347
1932282N24303 1932 61 NA NA NOT_NAMED 1932-10-11 06:00:00 TS 33.9000 -63.7000 50 hurdat_atl main 1028 990 O_____________ hurdat_atl AL121932 33.9000 -63.7000 TS 50 0 8 356
1932282N24303 1932 61 NA NA NOT_NAMED 1932-10-11 09:00:00 TS 34.2897 -63.6887 main 990 953 P_____________ AL121932 34.2897 -63.6887 TS 50 0 9 10
1932282N24303 1932 61 NA NA NOT_NAMED 1932-10-11 12:00:00 TS 34.8000 -63.5000 50 hurdat_atl main 953 915 O_____________ hurdat_atl AL121932 34.8000 -63.5000 TS 50 0 13 22
1932282N24303 1932 61 NA NA NOT_NAMED 1932-10-11 15:00:00 TS 35.4520 -63.1176 main 910 844 P_____________ AL121932 35.4520 -63.1176 TS 47 0 17 28
1932282N24303 1932 61 NA NA NOT_NAMED 1932-10-11 18:00:00 TS 36.3000 -62.5000 45 hurdat_atl main 835 757 O_____________ hurdat_atl AL121932 36.3000 -62.5000 TS 45 0 21 31
1932282N24303 1932 61 NA NA NOT_NAMED 1932-10-11 21:00:00 TS 37.2853 -61.7573 main 750 680 P_____________ AL121932 37.2853 -61.7573 TS 45 0 26 33
1932282N24303 1932 61 NA NA NOT_NAMED 1932-10-12 00:00:00 TS 38.5000 -60.7000 45 hurdat_atl main 676 604 O_____________ hurdat_atl AL121932 38.5000 -60.7000 TS 45 0 33 37
1932282N24303 1932 61 NA NA NOT_NAMED 1932-10-12 03:00:00 TS 39.9442 -59.2407 main 608 507 P_____________ AL121932 39.9442 -59.2407 TS 42 0 39 39
1932282N24303 1932 61 NA NA NOT_NAMED 1932-10-12 06:00:00 ET 41.5000 -57.5000 40 hurdat_atl main 503 O_____________ hurdat_atl AL121932 41.5000 -57.5000 EX 40 -4 41 40

IBTrACS Databaseについて

本データベースは、米国NOAAが公開する1842年以降の世界の熱帯低気圧のベストトラックデータアーカイブInternational Best Track Archive for Climate Stewardship (IBTrACS)を、ウェブで閲覧しやすい形式に変換したものです。

最終更新日:2021-10-08